Terminal Aerodrome Forecast
Issued by NWS

Home | Current Version | Previous Version | Text Only | Print | Product List | Glossary On
Versions: 1 2 3 4 5 6 7 8 9 10 11 12 13 14 15 16 17 18 19 20 21 22 23 24 25 26 27 28 29 30 31 32 33
000
FTAK31 PANC 220309 AAA
TAFADQ
TAF AMD
PADQ 220309Z 2203/2224 11006KT P6SM SCT025 OVC100
      TEMPO 2203/2206 BKN025
     FM220600 27007KT P6SM SCT040 BKN250
     FM222000 08006KT P6SM SCT040 BKN100=

USA.gov is the U.S. government's official web portal to all federal, state and local government web resources and services.